createdAt,value
2018-10-03T00:00:22.440Z,76.02
2018-10-03T00:02:51.277Z,76.09
2018-10-03T00:05:20.095Z,75.75
2018-10-03T00:07:48.957Z,76.06
2018-10-03T00:10:17.810Z,75.97
2018-10-03T00:12:46.790Z,76.26
2018-10-03T00:15:15.746Z,75.91
2018-10-03T00:17:44.637Z,75.76
2018-10-03T00:20:13.547Z,76.71
2018-10-03T00:22:42.462Z,75.91
2018-10-03T00:25:11.344Z,76.03
2018-10-03T00:27:40.302Z,76.34
2018-10-03T00:30:09.297Z,76.55
2018-10-03T00:32:38.122Z,76.21
2018-10-03T00:35:07.053Z,76.15
2018-10-03T00:37:35.931Z,75.73
2018-10-03T00:40:04.855Z,75.77
2018-10-03T00:42:33.782Z,75.76
2018-10-03T00:45:02.704Z,75.19
2018-10-03T00:47:31.662Z,74.93
2018-10-03T00:50:00.674Z,75.00
2018-10-03T00:52:29.577Z,74.49
2018-10-03T00:54:58.524Z,74.32
2018-10-03T00:57:27.377Z,74.23
2018-10-03T00:59:56.255Z,73.44
2018-10-03T01:02:25.163Z,73.20
2018-10-03T01:04:54.027Z,73.16
2018-10-03T01:07:22.849Z,73.14
2018-10-03T01:09:51.771Z,72.51
2018-10-03T01:12:20.687Z,72.30
2018-10-03T01:14:49.601Z,71.77
2018-10-03T01:17:18.485Z,72.42
2018-10-03T01:19:47.444Z,72.05
2018-10-03T01:22:16.257Z,72.12
2018-10-03T01:24:45.156Z,72.14
2018-10-03T01:27:14.060Z,71.41
2018-10-03T01:29:43.010Z,71.31
2018-10-03T01:32:11.906Z,70.85
2018-10-03T01:34:40.815Z,70.74
2018-10-03T01:37:09.765Z,71.25
2018-10-03T01:39:38.665Z,70.62
2018-10-03T01:42:07.808Z,71.01
2018-10-03T01:44:36.814Z,71.57
2018-10-03T01:47:05.685Z,71.67
2018-10-03T01:49:34.911Z,70.90
2018-10-03T01:52:03.796Z,71.00
2018-10-03T01:54:32.604Z,71.09
2018-10-03T01:57:01.598Z,71.35
2018-10-03T01:59:30.501Z,71.46
2018-10-03T02:01:59.568Z,71.37
2018-10-03T02:04:28.441Z,71.09
2018-10-03T02:06:57.472Z,71.01
2018-10-03T02:09:26.344Z,70.55
2018-10-03T02:11:55.403Z,70.58
2018-10-03T02:14:24.269Z,70.77
2018-10-03T02:16:53.342Z,71.00
2018-10-03T02:19:22.151Z,71.08
2018-10-03T02:21:51.048Z,70.38
2018-10-03T02:24:20.288Z,70.87
2018-10-03T02:26:49.193Z,71.06
2018-10-03T02:29:18.229Z,69.86
2018-10-03T02:31:47.174Z,70.51
2018-10-03T02:34:15.999Z,70.10
2018-10-03T02:36:44.861Z,70.04
2018-10-03T02:39:13.706Z,69.96
2018-10-03T02:41:42.553Z,70.69
2018-10-03T02:44:11.362Z,70.55
2018-10-03T02:46:40.217Z,70.67
2018-10-03T02:49:09.378Z,70.12
2018-10-03T02:51:38.199Z,70.62
2018-10-03T02:54:07.146Z,70.54
2018-10-03T02:56:36.070Z,69.77
2018-10-03T02:59:04.903Z,70.60
2018-10-03T03:01:33.865Z,70.54
2018-10-03T03:04:02.951Z,70.33
2018-10-03T03:06:31.884Z,70.61
2018-10-03T03:09:00.811Z,70.06
2018-10-03T03:11:29.906Z,70.00
2018-10-03T03:13:58.965Z,70.03
2018-10-03T03:16:27.913Z,70.00
2018-10-03T03:18:56.819Z,70.08
2018-10-03T03:21:25.734Z,69.36
2018-10-03T03:23:54.677Z,69.59
2018-10-03T03:26:23.509Z,69.10
2018-10-03T03:28:52.441Z,69.42
2018-10-03T03:31:21.408Z,68.69
2018-10-03T03:33:50.360Z,69.42
2018-10-03T03:36:19.278Z,69.14
2018-10-03T03:38:48.123Z,69.15
2018-10-03T03:41:17.247Z,68.95
2018-10-03T03:43:46.142Z,69.45
2018-10-03T03:46:15.047Z,69.85
2018-10-03T03:48:43.910Z,69.69
2018-10-03T03:51:12.874Z,70.11
2018-10-03T03:53:42.012Z,69.10
2018-10-03T03:56:10.908Z,69.33
2018-10-03T03:58:39.717Z,69.64
2018-10-03T04:01:08.639Z,69.54
2018-10-03T04:03:37.538Z,69.98
2018-10-03T04:06:06.600Z,69.88
2018-10-03T04:08:35.468Z,70.38
2018-10-03T04:11:04.297Z,70.16
2018-10-03T04:13:33.204Z,70.16
2018-10-03T04:16:02.029Z,70.31
2018-10-03T04:18:30.978Z,70.10
2018-10-03T04:20:59.974Z,70.58
2018-10-03T04:23:28.881Z,70.09
2018-10-03T04:25:57.774Z,69.90
2018-10-03T04:28:27.098Z,70.77
2018-10-03T04:30:56.053Z,70.54
2018-10-03T04:33:24.880Z,70.64
2018-10-03T04:35:53.800Z,70.09
2018-10-03T04:38:22.644Z,70.39
2018-10-03T04:40:51.594Z,69.89
2018-10-03T04:43:20.541Z,69.50
2018-10-03T04:45:49.370Z,69.49
2018-10-03T04:48:18.273Z,69.56
2018-10-03T04:50:47.237Z,69.76
2018-10-03T04:53:16.081Z,69.49
2018-10-03T04:55:45.073Z,69.74
2018-10-03T04:58:14.074Z,69.67
2018-10-03T05:00:43.058Z,69.69
2018-10-03T05:03:11.952Z,68.88
2018-10-03T05:05:40.808Z,68.97
2018-10-03T05:08:09.965Z,69.70
2018-10-03T05:10:38.837Z,69.79
2018-10-03T05:13:07.660Z,69.01
2018-10-03T05:15:36.655Z,69.33
2018-10-03T05:18:05.638Z,69.28
2018-10-03T05:20:34.691Z,69.35
2018-10-03T05:23:03.704Z,69.12
2018-10-03T05:25:32.590Z,69.50
2018-10-03T05:28:01.586Z,68.82
2018-10-03T05:30:30.654Z,69.20
2018-10-03T05:32:59.449Z,69.30
2018-10-03T05:35:28.354Z,68.60
2018-10-03T05:37:57.269Z,68.27
2018-10-03T05:40:26.363Z,68.11
2018-10-03T05:42:55.129Z,68.17
2018-10-03T05:45:24.073Z,67.57
2018-10-03T05:47:53.072Z,67.62
2018-10-03T05:50:21.992Z,66.91
2018-10-03T05:52:50.836Z,67.21
2018-10-03T05:55:19.797Z,66.58
2018-10-03T05:57:48.728Z,66.69
2018-10-03T06:00:17.699Z,66.46
2018-10-03T06:02:46.596Z,66.55
2018-10-03T06:05:15.655Z,65.54
2018-10-03T06:07:44.456Z,65.95
2018-10-03T06:10:13.329Z,65.51
2018-10-03T06:12:42.233Z,65.25
2018-10-03T06:15:11.165Z,65.07
2018-10-03T06:17:40.002Z,64.78
2018-10-03T06:20:09.262Z,64.20
2018-10-03T06:22:38.219Z,64.42
2018-10-03T06:25:07.475Z,63.73
2018-10-03T06:27:36.716Z,63.89
2018-10-03T06:30:07.192Z,62.93
2018-10-03T06:32:35.993Z,63.27
2018-10-03T06:35:04.810Z,63.38
2018-10-03T06:37:33.731Z,63.14
2018-10-03T06:40:02.698Z,61.94
2018-10-03T06:42:31.544Z,62.01
2018-10-03T06:45:00.429Z,61.96
2018-10-03T06:47:30.263Z,61.87
2018-10-03T06:50:05.708Z,61.97
2018-10-03T06:52:34.593Z,62.95
2018-10-03T06:55:03.579Z,63.22
2018-10-03T06:57:32.636Z,63.12
2018-10-03T07:00:01.471Z,63.02
2018-10-03T07:02:30.373Z,62.88
2018-10-03T07:04:59.239Z,63.07
2018-10-03T07:07:28.198Z,63.28
2018-10-03T07:09:57.184Z,63.99
2018-10-03T07:12:27.811Z,62.10
2018-10-03T07:14:56.771Z,61.53
2018-10-03T07:17:25.654Z,60.42
2018-10-03T07:19:54.607Z,61.20
2018-10-03T07:22:23.487Z,60.74
2018-10-03T07:24:52.412Z,60.53
2018-10-03T07:27:21.272Z,60.59
2018-10-03T07:29:50.158Z,61.05
2018-10-03T07:32:19.062Z,61.15
2018-10-03T07:34:47.953Z,59.41
2018-10-03T07:37:16.773Z,59.94
2018-10-03T07:39:45.621Z,59.69
2018-10-03T07:42:14.458Z,59.75
2018-10-03T07:44:43.450Z,59.69
2018-10-03T07:47:12.379Z,59.14
2018-10-03T07:49:41.267Z,57.48
2018-10-03T07:52:10.326Z,57.64
2018-10-03T07:54:39.130Z,57.20
2018-10-03T07:57:08.010Z,57.61
2018-10-03T07:59:36.901Z,57.68
2018-10-03T08:02:05.981Z,57.72
2018-10-03T08:04:34.818Z,58.26
2018-10-03T08:07:03.678Z,57.61
2018-10-03T08:09:32.486Z,57.37
2018-10-03T08:12:01.384Z,57.66
2018-10-03T08:14:30.279Z,57.73
2018-10-03T08:16:59.300Z,57.77
2018-10-03T08:19:28.238Z,56.92
2018-10-03T08:21:57.158Z,56.56
2018-10-03T08:24:26.140Z,56.71
2018-10-03T08:26:55.204Z,56.51
2018-10-03T08:29:24.167Z,56.57
2018-10-03T08:31:53.004Z,55.86
2018-10-03T08:34:21.868Z,55.90
2018-10-03T08:36:50.737Z,55.39
2018-10-03T08:39:19.722Z,54.39
2018-10-03T08:41:48.698Z,55.44
2018-10-03T08:44:17.481Z,54.35
2018-10-03T08:46:46.407Z,54.21
2018-10-03T08:49:15.318Z,54.44
2018-10-03T08:51:44.279Z,54.56
2018-10-03T08:54:13.302Z,54.08
2018-10-03T08:56:42.219Z,54.35
2018-10-03T08:59:11.198Z,54.60
2018-10-03T09:01:40.120Z,54.47
2018-10-03T09:04:08.924Z,54.21
2018-10-03T09:06:37.829Z,53.82
2018-10-03T09:09:08.926Z,52.79
2018-10-03T09:11:37.925Z,53.84
2018-10-03T09:14:07.005Z,53.35
2018-10-03T09:16:35.930Z,52.25
2018-10-03T09:19:04.782Z,52.79
2018-10-03T09:21:33.758Z,52.11
2018-10-03T09:24:02.614Z,52.66
2018-10-03T09:26:31.458Z,52.21
2018-10-03T09:29:00.358Z,51.43
2018-10-03T09:31:29.298Z,51.52
2018-10-03T09:33:58.134Z,51.75
2018-10-03T09:36:27.098Z,51.77
2018-10-03T09:38:56.009Z,51.32
2018-10-03T09:41:24.877Z,51.89
2018-10-03T09:43:53.865Z,51.50
2018-10-03T09:46:23.050Z,51.65
2018-10-03T09:48:51.876Z,52.05
2018-10-03T09:51:20.739Z,51.14
2018-10-03T09:53:49.591Z,51.07
2018-10-03T09:56:18.450Z,51.23
2018-10-03T09:58:47.334Z,50.67
2018-10-03T10:01:21.439Z,50.46
2018-10-03T10:03:50.410Z,50.74
2018-10-03T10:06:19.304Z,50.35
2018-10-03T10:08:48.180Z,50.16
2018-10-03T10:11:17.286Z,49.92
2018-10-03T10:13:46.599Z,48.98
2018-10-03T10:16:15.536Z,48.92
2018-10-03T10:18:44.452Z,48.63
2018-10-03T10:21:13.992Z,48.66
2018-10-03T10:23:42.916Z,48.35
2018-10-03T10:26:11.754Z,48.21
2018-10-03T10:28:40.649Z,47.20
2018-10-03T10:31:09.590Z,47.21
2018-10-03T10:33:38.535Z,47.85
2018-10-03T10:36:07.797Z,47.32
2018-10-03T10:38:39.503Z,47.84
2018-10-03T10:41:08.611Z,47.00
2018-10-03T10:43:37.598Z,48.31
2018-10-03T10:46:06.611Z,48.50
2018-10-03T10:48:35.506Z,48.54
2018-10-03T10:51:04.362Z,47.57
2018-10-03T10:53:33.244Z,47.80
2018-10-03T10:56:02.205Z,47.65
2018-10-03T10:58:31.142Z,48.12
2018-10-03T11:01:00.004Z,47.60
2018-10-03T11:03:28.907Z,47.27
2018-10-03T11:05:57.748Z,47.56
2018-10-03T11:08:26.555Z,47.13
2018-10-03T11:10:55.529Z,47.81
2018-10-03T11:13:24.506Z,46.97
2018-10-03T11:15:53.410Z,47.13
2018-10-03T11:18:22.232Z,46.42
2018-10-03T11:20:51.114Z,46.82
2018-10-03T11:23:19.990Z,47.08
2018-10-03T11:25:48.867Z,46.24
2018-10-03T11:28:17.725Z,46.77
2018-10-03T11:30:46.653Z,46.00
2018-10-03T11:33:15.592Z,46.73
2018-10-03T11:35:44.538Z,45.94
2018-10-03T11:38:13.471Z,46.60
2018-10-03T11:40:42.485Z,46.00
2018-10-03T11:43:11.281Z,46.08
2018-10-03T11:45:40.546Z,46.09
2018-10-03T11:48:09.494Z,46.49
2018-10-03T11:50:38.376Z,46.70
2018-10-03T11:53:07.849Z,45.49
2018-10-03T11:55:36.668Z,46.19
2018-10-03T11:58:05.576Z,44.98
2018-10-03T12:00:34.521Z,45.44
2018-10-03T12:03:03.471Z,45.67
2018-10-03T12:05:32.459Z,44.57
2018-10-03T12:08:01.349Z,45.22
2018-10-03T12:10:30.348Z,45.03
2018-10-03T12:12:59.347Z,45.42
2018-10-03T12:15:28.726Z,45.29
2018-10-03T12:17:57.746Z,44.40
2018-10-03T12:20:26.626Z,44.80
2018-10-03T12:22:55.621Z,45.33
2018-10-03T12:25:24.491Z,44.74
2018-10-03T12:27:53.446Z,44.14
2018-10-03T12:30:22.748Z,43.63
2018-10-03T12:32:51.585Z,43.34
2018-10-03T12:35:25.704Z,44.23
2018-10-03T12:37:54.575Z,44.39
2018-10-03T12:40:23.715Z,44.73
2018-10-03T12:42:52.588Z,44.43
2018-10-03T12:45:21.484Z,44.71
2018-10-03T12:47:50.412Z,45.11
2018-10-03T12:50:19.331Z,45.06
2018-10-03T12:52:48.447Z,44.37
2018-10-03T12:55:17.362Z,44.95
2018-10-03T12:57:46.888Z,44.14
2018-10-03T13:00:16.382Z,44.43
2018-10-03T13:02:45.493Z,44.26
2018-10-03T13:05:14.444Z,44.13
2018-10-03T13:07:43.274Z,44.04
2018-10-03T13:10:12.136Z,44.19
2018-10-03T13:12:41.145Z,43.05
2018-10-03T13:15:10.387Z,42.65
2018-10-03T13:17:39.245Z,43.20
2018-10-03T13:20:08.667Z,43.67
2018-10-03T13:22:37.513Z,42.76
2018-10-03T13:25:06.393Z,43.59
2018-10-03T13:27:35.403Z,43.62
2018-10-03T13:30:05.840Z,42.40
2018-10-03T13:32:34.713Z,42.77
2018-10-03T13:35:03.544Z,41.90
2018-10-03T13:37:32.443Z,42.48
2018-10-03T13:40:01.394Z,43.00
2018-10-03T13:42:30.589Z,42.65
2018-10-03T13:44:59.530Z,43.61
2018-10-03T13:47:28.479Z,43.76
2018-10-03T13:49:57.380Z,43.11
2018-10-03T13:52:26.305Z,42.58
2018-10-03T13:54:55.252Z,42.96
2018-10-03T13:57:24.152Z,43.03
2018-10-03T13:59:53.136Z,43.21
2018-10-03T14:02:22.090Z,43.96
2018-10-03T14:04:50.997Z,42.93
2018-10-03T14:07:19.800Z,42.56
2018-10-03T14:09:48.711Z,42.77
2018-10-03T14:12:17.651Z,43.06
2018-10-03T14:14:46.547Z,42.40
2018-10-03T14:17:15.428Z,42.69
2018-10-03T14:19:44.347Z,42.47
2018-10-03T14:22:13.219Z,42.43
2018-10-03T14:24:42.055Z,42.30
2018-10-03T14:27:10.981Z,43.20
2018-10-03T14:29:40.022Z,43.37
2018-10-03T14:32:08.882Z,43.27
2018-10-03T14:34:37.731Z,43.28
2018-10-03T14:37:06.619Z,42.41
2018-10-03T14:39:35.541Z,42.53
2018-10-03T14:42:04.630Z,42.20
2018-10-03T14:44:33.517Z,42.85
2018-10-03T14:47:02.402Z,41.96
2018-10-03T14:49:31.206Z,42.18
2018-10-03T14:52:00.066Z,42.88
2018-10-03T14:54:30.198Z,42.03
2018-10-03T14:56:59.009Z,41.68
2018-10-03T14:59:28.139Z,42.24
2018-10-03T15:01:57.044Z,41.64
2018-10-03T15:04:25.846Z,41.99
2018-10-03T15:06:54.737Z,41.59
2018-10-03T15:09:23.662Z,42.83
2018-10-03T15:11:52.487Z,42.36
2018-10-03T15:14:21.367Z,41.97
2018-10-03T15:16:50.254Z,42.14
2018-10-03T15:19:19.222Z,42.93
2018-10-03T15:21:48.044Z,42.93
2018-10-03T15:24:16.961Z,42.74
2018-10-03T15:26:46.084Z,43.07
2018-10-03T15:29:14.868Z,43.27
2018-10-03T15:31:43.709Z,43.74
2018-10-03T15:34:12.584Z,43.47
2018-10-03T15:36:41.785Z,43.68
2018-10-03T15:39:11.526Z,44.29
2018-10-03T15:41:40.392Z,44.32
2018-10-03T15:44:09.891Z,44.94
2018-10-03T15:46:38.911Z,45.40
2018-10-03T15:49:07.842Z,45.07
2018-10-03T15:51:36.781Z,45.70
2018-10-03T15:54:06.219Z,45.47
2018-10-03T15:56:35.144Z,45.31
2018-10-03T15:59:04.205Z,46.05
2018-10-03T16:01:33.110Z,45.29
2018-10-03T16:04:02.014Z,45.92
2018-10-03T16:06:30.921Z,45.74
2018-10-03T16:08:59.897Z,45.71
2018-10-03T16:11:28.756Z,45.52
2018-10-03T16:13:57.863Z,45.24
2018-10-03T16:16:26.769Z,45.58
2018-10-03T16:18:55.690Z,45.70
2018-10-03T16:21:24.600Z,45.18
2018-10-03T16:23:53.421Z,45.28
2018-10-03T16:26:22.441Z,45.94
2018-10-03T16:28:51.514Z,45.36
2018-10-03T16:31:20.431Z,44.87
2018-10-03T16:33:49.385Z,45.58
2018-10-03T16:36:18.310Z,45.34
2018-10-03T16:38:47.369Z,45.88
2018-10-03T16:41:16.350Z,45.38
2018-10-03T16:43:45.306Z,45.26
2018-10-03T16:46:14.185Z,45.26
2018-10-03T16:48:43.074Z,46.07
2018-10-03T16:51:11.917Z,46.58
2018-10-03T16:53:40.785Z,46.76
2018-10-03T16:56:10.162Z,46.48
2018-10-03T16:58:38.989Z,47.38
2018-10-03T17:01:07.935Z,47.06
2018-10-03T17:03:36.826Z,46.41
2018-10-03T17:06:05.761Z,46.56
2018-10-03T17:08:35.450Z,46.15
2018-10-03T17:11:04.431Z,46.10
2018-10-03T17:13:33.344Z,46.84
2018-10-03T17:16:02.319Z,46.92
2018-10-03T17:18:31.233Z,45.84
2018-10-03T17:21:00.225Z,46.47
2018-10-03T17:23:29.792Z,47.21
2018-10-03T17:25:58.708Z,46.08
2018-10-03T17:28:27.716Z,46.47
2018-10-03T17:30:56.687Z,46.27
2018-10-03T17:33:25.493Z,45.58
2018-10-03T17:35:54.337Z,46.38
2018-10-03T17:38:23.257Z,45.51
2018-10-03T17:40:52.246Z,46.36
2018-10-03T17:43:21.319Z,45.59
2018-10-03T17:45:51.111Z,45.65
2018-10-03T17:48:20.028Z,45.31
2018-10-03T17:50:48.899Z,46.43
2018-10-03T17:53:17.805Z,46.42
2018-10-03T17:55:47.955Z,46.15
2018-10-03T17:58:16.948Z,46.38
2018-10-03T18:00:45.814Z,45.10
2018-10-03T18:03:14.647Z,45.96
2018-10-03T18:05:44.045Z,45.55
2018-10-03T18:08:12.905Z,46.07
2018-10-03T18:10:41.889Z,46.06
2018-10-03T18:13:10.858Z,45.81
2018-10-03T18:15:39.800Z,45.41
2018-10-03T18:18:08.634Z,46.14
2018-10-03T18:20:37.545Z,46.21
2018-10-03T18:23:06.413Z,45.30
2018-10-03T18:25:35.354Z,45.33
2018-10-03T18:28:04.346Z,46.27
2018-10-03T18:30:33.372Z,45.33
2018-10-03T18:33:02.302Z,45.35
2018-10-03T18:35:31.233Z,46.04
2018-10-03T18:38:00.142Z,45.37
2018-10-03T18:40:29.173Z,45.05
2018-10-03T18:42:58.053Z,46.02
2018-10-03T18:45:26.921Z,46.11
2018-10-03T18:47:55.718Z,45.67
2018-10-03T18:50:24.550Z,45.88
2018-10-03T18:52:54.071Z,45.69
2018-10-03T18:55:23.087Z,45.35
2018-10-03T18:57:52.081Z,45.64
2018-10-03T19:00:22.382Z,44.94
2018-10-03T19:02:51.246Z,45.48
2018-10-03T19:05:20.814Z,45.37
2018-10-03T19:07:49.721Z,45.49
2018-10-03T19:10:18.650Z,45.42
2018-10-03T19:12:47.544Z,45.50
2018-10-03T19:15:16.374Z,45.68
2018-10-03T19:17:45.199Z,45.04
2018-10-03T19:20:14.048Z,45.29
2018-10-03T19:22:43.172Z,45.23
2018-10-03T19:25:12.931Z,45.67
2018-10-03T19:27:41.743Z,45.53
2018-10-03T19:30:10.565Z,45.09
2018-10-03T19:32:39.606Z,45.44
2018-10-03T19:35:08.699Z,45.11
2018-10-03T19:37:37.631Z,44.98
2018-10-03T19:40:06.775Z,45.45
2018-10-03T19:42:35.762Z,45.00
2018-10-03T19:45:04.730Z,44.95
2018-10-03T19:47:33.640Z,45.15
2018-10-03T19:50:02.795Z,45.84
2018-10-03T19:52:31.681Z,45.38
2018-10-03T19:55:00.609Z,45.26
2018-10-03T19:57:29.465Z,46.24
2018-10-03T19:59:58.310Z,45.71
2018-10-03T20:02:27.524Z,45.11
2018-10-03T20:04:56.496Z,45.44
2018-10-03T20:07:25.411Z,45.61
2018-10-03T20:09:54.245Z,45.45
2018-10-03T20:12:23.125Z,46.47
2018-10-03T20:14:52.391Z,45.85
2018-10-03T20:17:21.282Z,46.60
2018-10-03T20:19:50.134Z,46.29
2018-10-03T20:22:19.002Z,46.79
2018-10-03T20:24:47.969Z,46.39
2018-10-03T20:27:16.809Z,47.18
2018-10-03T20:29:45.820Z,46.74
2018-10-03T20:32:14.663Z,47.16
2018-10-03T20:34:43.549Z,46.41
2018-10-03T20:37:12.594Z,46.83
2018-10-03T20:39:41.535Z,46.83
2018-10-03T20:42:10.418Z,46.46
2018-10-03T20:44:39.210Z,46.91
2018-10-03T20:47:08.082Z,46.72
2018-10-03T20:49:36.894Z,46.43
2018-10-03T20:52:05.926Z,46.39
2018-10-03T20:54:34.794Z,46.12
2018-10-03T20:57:03.638Z,45.92
2018-10-03T20:59:32.537Z,46.19
2018-10-03T21:02:01.664Z,46.86
2018-10-03T21:04:30.573Z,46.94
2018-10-03T21:06:59.553Z,47.38
2018-10-03T21:09:28.426Z,47.26
2018-10-03T21:11:57.431Z,46.90
2018-10-03T21:14:26.369Z,47.35
2018-10-03T21:16:55.246Z,47.52
2018-10-03T21:19:24.183Z,47.24
2018-10-03T21:21:53.085Z,47.64
2018-10-03T21:24:22.056Z,47.54
2018-10-03T21:26:51.084Z,47.76
2018-10-03T21:29:19.914Z,47.22
2018-10-03T21:31:48.822Z,47.81
2018-10-03T21:34:17.634Z,47.45
2018-10-03T21:36:46.507Z,47.67
2018-10-03T21:39:15.335Z,47.56
2018-10-03T21:41:44.204Z,47.93
2018-10-03T21:44:13.076Z,47.83
2018-10-03T21:46:42.038Z,47.97
2018-10-03T21:49:10.950Z,48.01
2018-10-03T21:51:39.875Z,48.26
2018-10-03T21:54:08.839Z,47.76
2018-10-03T21:56:37.799Z,48.15
2018-10-03T21:59:06.643Z,48.19
2018-10-03T22:01:35.526Z,48.01
2018-10-03T22:04:04.435Z,48.80
2018-10-03T22:06:33.374Z,48.47
2018-10-03T22:09:02.570Z,48.38
2018-10-03T22:11:31.539Z,48.85
2018-10-03T22:14:00.623Z,48.61
2018-10-03T22:16:29.502Z,48.62
2018-10-03T22:18:58.479Z,48.39
2018-10-03T22:21:27.472Z,48.85
2018-10-03T22:23:56.393Z,48.94
2018-10-03T22:26:25.285Z,48.50
2018-10-03T22:28:54.201Z,49.04
2018-10-03T22:31:23.154Z,49.03
2018-10-03T22:33:52.043Z,49.23
2018-10-03T22:36:21.129Z,49.21
2018-10-03T22:38:50.148Z,49.62
2018-10-03T22:41:19.038Z,49.31
2018-10-03T22:43:48.037Z,49.07
2018-10-03T22:46:17.056Z,49.79
2018-10-03T22:48:46.041Z,50.38
2018-10-03T22:51:15.058Z,49.83
2018-10-03T22:53:43.945Z,50.23
2018-10-03T22:56:13.050Z,50.01
2018-10-03T22:58:42.011Z,50.62
2018-10-03T23:01:11.009Z,50.64
2018-10-03T23:03:39.922Z,49.98
2018-10-03T23:06:09.046Z,50.91
2018-10-03T23:08:38.143Z,50.52
2018-10-03T23:11:07.204Z,50.54
2018-10-03T23:13:36.283Z,50.64
2018-10-03T23:16:05.287Z,50.38
2018-10-03T23:18:34.324Z,50.30
2018-10-03T23:21:03.267Z,51.16
2018-10-03T23:23:32.334Z,50.37
2018-10-03T23:26:01.282Z,50.55
2018-10-03T23:28:30.277Z,51.09
2018-10-03T23:30:59.279Z,50.94
2018-10-03T23:33:28.295Z,51.55
2018-10-03T23:35:57.331Z,51.07
2018-10-03T23:38:26.499Z,51.12
2018-10-03T23:40:55.683Z,51.07
2018-10-03T23:43:24.706Z,51.58
2018-10-03T23:45:53.609Z,51.14
2018-10-03T23:48:22.649Z,51.39
2018-10-03T23:50:51.607Z,51.66
2018-10-03T23:53:20.565Z,51.37
2018-10-03T23:55:49.469Z,51.50
2018-10-03T23:58:18.525Z,51.33
